Time;durP1;ratioP1;P1;durP2;ratioP2;P2;SDS_P1;SDS_P2;PMS_P1;PMS_P2;Temp;Humidity;BMP_temperature;BMP_pressure;BME280_temperature;BME280_humidity;BME280_pressure;Samples;Min_cycle;Max_cycle;Signal;HPM_P1;HPM_P2
2023/08/12 00:01:31;;;;;;;11.00;2.80;;;;;;;15.16;83.20;100482.40;105156;1260;72713;-62
2023/08/12 00:04:17;;;;;;;10.00;2.80;;;;;;;15.17;82.94;100473.96;105725;1259;67479;-64
2023/08/12 00:07:04;;;;;;;9.70;2.80;;;;;;;15.18;83.04;100475.79;105285;1259;73298;-62
2023/08/12 00:09:50;;;;;;;12.20;2.90;;;;;;;15.18;82.74;100473.90;105543;1262;59717;-63
2023/08/12 00:12:38;;;;;;;12.10;2.80;;;;;;;15.17;82.49;100471.95;105583;1262;60628;-61
2023/08/12 00:15:25;;;;;;;7.20;2.60;;;;;;;15.17;82.46;100472.19;104834;1262;71822;-63
2023/08/12 00:18:12;;;;;;;11.10;3.40;;;;;;;15.15;82.27;100471.91;105313;1263;68442;-64
2023/08/12 00:20:59;;;;;;;11.20;3.80;;;;;;;15.12;82.08;100468.09;105163;1265;72320;-63
2023/08/12 00:23:47;;;;;;;8.10;2.50;;;;;;;15.08;82.23;100473.33;105432;1264;59320;-61
2023/08/12 00:26:34;;;;;;;9.40;2.70;;;;;;;15.03;82.23;100473.95;105517;1262;62197;-61
2023/08/12 00:29:21;;;;;;;9.90;2.80;;;;;;;14.97;82.58;100472.16;105405;1259;72444;-63
2023/08/12 00:32:09;;;;;;;9.10;2.80;;;;;;;14.91;82.31;100474.31;105308;1263;68489;-61
2023/08/12 00:34:56;;;;;;;9.40;2.90;;;;;;;14.86;82.48;100478.86;105289;1262;74212;-62
2023/08/12 00:37:43;;;;;;;8.60;2.70;;;;;;;14.82;82.61;100479.37;105514;1264;59873;-63
2023/08/12 00:40:30;;;;;;;7.90;2.50;;;;;;;14.77;83.03;100477.99;105310;1264;59749;-61
2023/08/12 00:43:16;;;;;;;9.30;2.80;;;;;;;14.73;82.90;100479.59;105124;1262;71613;-61
2023/08/12 00:46:04;;;;;;;9.30;2.70;;;;;;;14.69;83.13;100484.83;105099;1264;68288;-60
2023/08/12 00:48:51;;;;;;;9.90;2.70;;;;;;;14.63;83.21;100489.05;105425;1261;73163;-60
2023/08/12 00:51:41;;;;;;;8.20;2.50;;;;;;;14.57;83.46;100493.29;105248;1261;60891;-63
2023/08/12 00:54:28;;;;;;;9.10;2.70;;;;;;;14.52;83.71;100490.91;105201;1264;60816;-63
2023/08/12 00:57:15;;;;;;;7.70;2.60;;;;;;;14.48;83.93;100486.23;105498;1259;71711;-60
2023/08/12 01:00:04;;;;;;;7.40;2.20;;;;;;;14.45;84.33;100482.07;105418;1261;67158;-64
2023/08/12 01:02:51;;;;;;;7.90;2.20;;;;;;;14.41;84.55;100481.66;105320;1264;73089;-63
2023/08/12 01:05:38;;;;;;;8.50;2.40;;;;;;;14.37;84.56;100477.38;105228;1264;59215;-62
2023/08/12 01:08:31;;;;;;;9.20;2.20;;;;;;;14.33;85.06;100480.25;105538;1263;60585;-62
2023/08/12 01:11:35;;;;;;;9.00;2.60;;;;;;;14.28;85.28;100480.70;105471;1264;73721;-62
2023/08/12 01:14:50;;;;;;;9.10;2.50;;;;;;;14.24;85.64;100480.09;105529;1261;67227;-60
2023/08/12 01:17:41;;;;;;;8.00;2.50;;;;;;;14.19;85.38;100474.15;105252;1261;74015;-61
2023/08/12 01:20:30;;;;;;;9.80;2.40;;;;;;;14.17;85.40;100475.17;105496;1259;61192;-61
2023/08/12 01:23:16;;;;;;;9.80;2.60;;;;;;;14.14;85.68;100472.77;105259;1262;60777;-61
2023/08/12 01:26:04;;;;;;;14.00;3.00;;;;;;;14.11;85.29;100471.80;105467;1259;71654;-61
2023/08/12 01:28:50;;;;;;;9.10;2.50;;;;;;;14.06;85.52;100469.52;105316;1262;67130;-61
2023/08/12 01:31:47;;;;;;;11.70;2.80;;;;;;;14.00;85.64;100466.63;105247;1260;73162;-61
2023/08/12 01:35:15;;;;;;;12.10;3.00;;;;;;;13.93;85.58;100463.52;105080;1260;60186;-60
2023/08/12 01:38:06;;;;;;;8.00;2.50;;;;;;;13.86;85.63;100466.06;105611;1262;59242;-62
2023/08/12 01:40:54;;;;;;;10.20;2.60;;;;;;;13.82;85.47;100471.23;105478;1260;72839;-62
2023/08/12 01:43:43;;;;;;;8.40;2.50;;;;;;;13.79;85.27;100468.23;105350;1259;68259;-62
2023/08/12 01:46:31;;;;;;;13.10;2.90;;;;;;;13.77;85.05;100465.75;105506;1262;73110;-62
2023/08/12 01:49:18;;;;;;;10.10;2.60;;;;;;;13.76;84.55;100463.87;105428;1258;59222;-62
2023/08/12 01:52:05;;;;;;;7.40;2.30;;;;;;;13.73;84.40;100458.75;105526;1259;61724;-62
2023/08/12 01:54:51;;;;;;;10.00;2.80;;;;;;;13.71;84.17;100458.93;105375;1259;72495;-61
2023/08/12 01:57:40;;;;;;;8.50;2.80;;;;;;;13.70;84.02;100456.38;105380;1259;68625;-62
2023/08/12 02:00:27;;;;;;;8.00;2.70;;;;;;;13.69;83.77;100463.80;105068;1263;74288;-61
2023/08/12 02:03:14;;;;;;;9.00;2.40;;;;;;;13.67;83.33;100462.33;105290;1262;59222;-63
2023/08/12 02:06:00;;;;;;;7.60;2.30;;;;;;;13.65;83.20;100462.13;105545;1259;61554;-62
2023/08/12 02:08:47;;;;;;;7.60;2.20;;;;;;;13.62;83.05;100466.33;105285;1259;72757;-62
2023/08/12 02:11:34;;;;;;;10.10;2.50;;;;;;;13.61;82.93;100467.48;104893;1265;67531;-62
2023/08/12 02:14:23;;;;;;;8.00;2.50;;;;;;;13.60;82.63;100464.46;105222;1261;73151;-61
2023/08/12 02:17:09;;;;;;;9.90;2.50;;;;;;;13.60;82.40;100461.81;105123;1262;59297;-62
2023/08/12 02:19:57;;;;;;;8.50;2.30;;;;;;;13.59;82.54;100464.89;105302;1263;60749;-60
2023/08/12 02:22:44;;;;;;;7.60;2.20;;;;;;;13.58;82.54;100466.63;105306;1261;72550;-63
2023/08/12 02:25:31;;;;;;;6.70;2.20;;;;;;;13.56;82.38;100463.41;105270;1260;68442;-63
2023/08/12 02:28:19;;;;;;;9.50;2.40;;;;;;;13.54;82.22;100459.27;105335;1260;73282;-61
2023/08/12 02:31:06;;;;;;;7.60;2.50;;;;;;;13.53;82.38;100459.25;105317;1265;60930;-62
2023/08/12 02:33:52;;;;;;;9.30;2.50;;;;;;;13.52;82.56;100459.66;105293;1260;61748;-62
2023/08/12 02:36:39;;;;;;;9.70;2.60;;;;;;;13.52;82.44;100460.00;105336;1260;73092;-61
2023/08/12 02:39:25;;;;;;;8.10;2.40;;;;;;;13.51;82.48;100459.70;105338;1261;68372;-61
2023/08/12 02:42:12;;;;;;;8.40;2.40;;;;;;;13.50;82.31;100464.43;105221;1260;73153;-62
2023/08/12 02:44:59;;;;;;;9.50;2.40;;;;;;;13.48;82.52;100462.83;105195;1264;59316;-63
2023/08/12 02:47:46;;;;;;;8.10;2.40;;;;;;;13.45;82.50;100466.45;105263;1261;61878;-62
2023/08/12 02:50:33;;;;;;;9.60;2.90;;;;;;;13.42;82.63;100468.16;105313;1264;73586;-62
2023/08/12 02:53:20;;;;;;;9.30;2.80;;;;;;;13.38;82.63;100469.90;105606;1262;67388;-63
2023/08/12 02:56:06;;;;;;;8.80;2.40;;;;;;;13.35;82.46;100467.10;105290;1263;71773;-64
2023/08/12 02:58:53;;;;;;;8.90;2.60;;;;;;;13.33;82.64;100467.23;105180;1262;60074;-62
2023/08/12 03:01:41;;;;;;;8.40;2.60;;;;;;;13.33;82.44;100465.45;105474;1261;61786;-62
2023/08/12 03:04:29;;;;;;;10.00;2.40;;;;;;;13.33;82.40;100467.06;105562;1260;74030;-63
2023/08/12 03:07:18;;;;;;;10.50;3.10;;;;;;;13.33;82.29;100464.92;105518;1259;69294;-64
2023/08/12 03:10:06;;;;;;;8.80;2.60;;;;;;;13.34;82.27;100467.53;105397;1260;71933;-65
2023/08/12 03:12:53;;;;;;;8.10;2.60;;;;;;;13.34;82.34;100465.02;105122;1266;59221;-63
2023/08/12 03:15:42;;;;;;;8.60;3.00;;;;;;;13.33;82.44;100464.96;105466;1260;61745;-63
2023/08/12 03:18:29;;;;;;;7.70;2.30;;;;;;;13.31;82.40;100457.96;105502;1259;72628;-63
2023/08/12 03:21:16;;;;;;;8.70;2.60;;;;;;;13.30;82.34;100457.91;105338;1262;67394;-62
2023/08/12 03:24:03;;;;;;;10.80;2.40;;;;;;;13.29;82.20;100460.08;105114;1263;73089;-62
2023/08/12 03:26:50;;;;;;;7.80;2.30;;;;;;;13.28;82.17;100463.85;105488;1262;60245;-63
2023/08/12 03:29:38;;;;;;;9.30;2.50;;;;;;;13.29;82.26;100465.20;105531;1263;59806;-63
2023/08/12 03:32:25;;;;;;;8.10;2.40;;;;;;;13.30;82.08;100466.20;105643;1260;71684;-62
2023/08/12 03:35:13;;;;;;;7.60;2.40;;;;;;;13.30;81.91;100469.63;105570;1260;69327;-62
2023/08/12 03:37:59;;;;;;;9.10;2.80;;;;;;;13.30;81.84;100468.01;105331;1262;74189;-61
2023/08/12 03:40:46;;;;;;;8.40;2.60;;;;;;;13.33;81.80;100469.42;105476;1262;59342;-63
2023/08/12 03:43:36;;;;;;;10.60;2.80;;;;;;;13.34;81.66;100473.75;105376;1262;59868;-64
2023/08/12 03:46:23;;;;;;;7.40;2.70;;;;;;;13.35;81.53;100474.40;105151;1259;72802;-63
2023/08/12 03:49:11;;;;;;;9.00;2.40;;;;;;;13.37;81.42;100475.16;105164;1264;67469;-62
2023/08/12 03:51:58;;;;;;;7.80;2.30;;;;;;;13.40;81.25;100474.93;105506;1262;74003;-62
2023/08/12 03:54:45;;;;;;;9.10;2.50;;;;;;;13.43;81.23;100476.05;105458;1262;61186;-61
2023/08/12 03:57:32;;;;;;;10.60;2.70;;;;;;;13.46;81.23;100474.41;105186;1262;60733;-61
2023/08/12 04:00:19;;;;;;;9.20;2.70;;;;;;;13.50;81.02;100476.61;105378;1266;72444;-61
2023/08/12 04:03:06;;;;;;;10.60;2.70;;;;;;;13.51;81.04;100474.32;105494;1264;68376;-61
2023/08/12 04:05:53;;;;;;;8.30;2.20;;;;;;;13.54;80.98;100472.13;105165;1265;74160;-62
2023/08/12 04:08:42;;;;;;;8.20;2.50;;;;;;;13.55;80.72;100468.83;105377;1264;59256;-62
2023/08/12 04:11:29;;;;;;;9.10;2.60;;;;;;;13.59;80.40;100465.45;105131;1264;60737;-62
2023/08/12 04:14:15;;;;;;;9.50;2.40;;;;;;;13.61;80.24;100455.35;105343;1264;72588;-63
2023/08/12 04:17:03;;;;;;;7.10;2.20;;;;;;;13.68;79.98;100463.66;105246;1263;69262;-62
2023/08/12 04:19:51;;;;;;;10.00;2.70;;;;;;;13.75;79.64;100461.31;105243;1260;73889;-61
2023/08/12 04:22:37;;;;;;;9.60;2.50;;;;;;;13.83;79.41;100464.40;105200;1264;59228;-61
2023/08/12 04:25:25;;;;;;;8.90;2.40;;;;;;;13.91;78.87;100462.80;105314;1264;60920;-61
2023/08/12 04:28:13;;;;;;;10.70;2.60;;;;;;;14.02;78.47;100465.94;105324;1265;71532;-61
2023/08/12 04:31:00;;;;;;;10.50;2.80;;;;;;;14.16;77.98;100463.16;105377;1260;69369;-62
2023/08/12 04:33:49;;;;;;;7.10;2.40;;;;;;;14.30;77.02;100464.62;105138;1264;72163;-61
2023/08/12 04:36:36;;;;;;;7.80;2.50;;;;;;;14.47;76.08;100461.73;105092;1265;60217;-62
2023/08/12 04:39:25;;;;;;;9.00;2.70;;;;;;;14.66;75.84;100455.29;105445;1263;60774;-62
2023/08/12 04:42:11;;;;;;;10.00;2.20;;;;;;;14.83;74.47;100450.88;105424;1263;73186;-60
2023/08/12 04:44:59;;;;;;;8.00;2.10;;;;;;;14.99;73.64;100449.45;105245;1263;69317;-63
2023/08/12 04:47:46;;;;;;;10.70;2.40;;;;;;;15.14;72.94;100446.11;105137;1264;72277;-62
2023/08/12 04:50:34;;;;;;;7.60;2.30;;;;;;;15.30;72.78;100443.83;105137;1261;59354;-61
2023/08/12 04:53:21;;;;;;;7.70;2.20;;;;;;;15.45;71.66;100442.61;105997;1262;59843;-63
2023/08/12 04:56:08;;;;;;;8.30;2.60;;;;;;;15.59;71.59;100442.17;105569;1262;73757;-63
2023/08/12 04:58:55;;;;;;;7.50;2.60;;;;;;;15.77;71.09;100435.92;105495;1262;68375;-61
2023/08/12 05:01:43;;;;;;;11.80;2.50;;;;;;;15.96;70.54;100434.17;105502;1263;73216;-62
2023/08/12 05:04:51;;;;;;;9.40;2.20;;;;;;;16.16;69.84;100437.06;105528;1258;59289;-63
2023/08/12 05:07:38;;;;;;;9.00;2.00;;;;;;;16.34;69.19;100446.09;105035;1259;60844;-63
2023/08/12 05:10:27;;;;;;;9.30;2.20;;;;;;;16.53;68.73;100445.59;105328;1262;73570;-62
2023/08/12 05:13:15;;;;;;;8.70;2.20;;;;;;;16.73;67.67;100445.02;105426;1263;68529;-63
2023/08/12 05:16:02;;;;;;;9.20;2.00;;;;;;;16.94;66.88;100448.04;105443;1260;73060;-62
2023/08/12 05:18:49;;;;;;;8.00;2.30;;;;;;;17.16;65.65;100444.80;105138;1263;59253;-63
2023/08/12 05:21:35;;;;;;;8.50;2.40;;;;;;;17.35;64.78;100442.19;105608;1262;59396;-62
2023/08/12 05:24:22;;;;;;;8.70;2.20;;;;;;;17.57;64.24;100442.66;105610;1257;73706;-63
2023/08/12 05:27:08;;;;;;;10.50;2.20;;;;;;;17.78;63.03;100438.28;105175;1257;66809;-61
2023/08/12 05:29:55;;;;;;;7.70;1.80;;;;;;;18.06;62.45;100436.80;105499;1262;73419;-61
2023/08/12 05:32:42;;;;;;;7.80;2.00;;;;;;;18.52;60.64;100435.48;105600;1264;59556;-64
2023/08/12 05:35:34;;;;;;;8.00;2.00;;;;;;;19.02;59.51;100433.20;105473;1259;59554;-64
2023/08/12 05:38:20;;;;;;;10.40;2.30;;;;;;;19.46;58.47;100433.02;105778;1262;70569;-64
2023/08/12 05:41:08;;;;;;;9.00;2.40;;;;;;;19.72;57.37;100429.73;105697;1257;67393;-64
2023/08/12 05:43:55;;;;;;;7.70;2.10;;;;;;;19.87;56.80;100426.23;105700;1262;73066;-63
2023/08/12 05:46:41;;;;;;;8.50;2.10;;;;;;;20.08;56.40;100422.95;105877;1263;59375;-63
2023/08/12 05:49:28;;;;;;;7.40;1.90;;;;;;;20.27;55.24;100420.98;105306;1262;62177;-63
2023/08/12 05:52:14;;;;;;;10.00;2.00;;;;;;;20.37;54.35;100420.06;105707;1262;71680;-63
2023/08/12 05:55:02;;;;;;;7.30;2.00;;;;;;;20.45;53.06;100415.17;105331;1257;68403;-64
2023/08/12 05:57:49;;;;;;;8.20;2.30;;;;;;;20.76;52.52;100416.89;105264;1263;74209;-63
2023/08/12 06:00:36;;;;;;;6.30;1.90;;;;;;;21.21;51.56;100412.38;105665;1262;59620;-64
2023/08/12 06:03:22;;;;;;;8.60;2.10;;;;;;;21.73;50.27;100408.44;105216;1263;60757;-65
2023/08/12 06:06:09;;;;;;;10.80;1.70;;;;;;;22.78;48.56;100410.06;105379;1263;72733;-65
2023/08/12 06:08:55;;;;;;;9.10;1.90;;;;;;;23.60;46.32;100406.05;105513;1263;68361;-63
2023/08/12 06:11:42;;;;;;;6.30;1.60;;;;;;;24.50;44.29;100402.65;105553;1262;74091;-63
2023/08/12 06:14:29;;;;;;;7.80;2.00;;;;;;;25.67;41.77;100397.96;105653;1262;59385;-62
2023/08/12 06:17:16;;;;;;;6.90;1.80;;;;;;;26.67;38.86;100391.97;105384;1263;60112;-63
2023/08/12 06:20:03;;;;;;;8.30;1.80;;;;;;;27.58;37.09;100391.43;105269;1261;73667;-61
2023/08/12 06:22:52;;;;;;;7.70;2.00;;;;;;;28.18;34.88;100387.40;105302;1264;69815;-64
2023/08/12 06:25:38;;;;;;;8.90;1.90;;;;;;;28.82;34.05;100387.95;105588;1263;73166;-66
2023/08/12 06:28:25;;;;;;;6.80;1.80;;;;;;;29.61;32.95;100381.05;105560;1263;59359;-67
2023/08/12 06:31:12;;;;;;;8.60;2.10;;;;;;;29.98;30.81;100377.33;105361;1262;59771;-66
2023/08/12 06:33:59;;;;;;;8.40;2.30;;;;;;;30.30;30.61;100377.72;105604;1262;71409;-67
2023/08/12 06:36:46;;;;;;;9.60;2.50;;;;;;;30.65;29.76;100378.23;105327;1262;68358;-65
2023/08/12 06:39:32;;;;;;;9.70;2.80;;;;;;;31.15;29.58;100376.08;105184;1264;187417;-64
2023/08/12 06:42:19;;;;;;;7.20;2.10;;;;;;;31.61;28.77;100375.89;105509;1263;59348;-63
2023/08/12 06:45:07;;;;;;;8.30;2.10;;;;;;;32.04;28.19;100371.94;105514;1263;61938;-63
2023/08/12 06:47:54;;;;;;;7.50;1.50;;;;;;;31.84;27.66;100372.02;105420;1260;72832;-65
2023/08/12 06:50:41;;;;;;;8.10;1.90;;;;;;;32.05;27.38;100370.59;105621;1261;68420;-63
2023/08/12 06:53:28;;;;;;;6.80;1.60;;;;;;;32.49;26.96;100364.27;105346;1260;73854;-64
2023/08/12 06:56:15;;;;;;;8.80;1.90;;;;;;;32.94;26.45;100359.73;105168;1260;59266;-64
2023/08/12 06:59:01;;;;;;;7.30;1.80;;;;;;;32.44;26.73;100360.69;105472;1263;60900;-61
2023/08/12 07:01:48;;;;;;;7.80;1.60;;;;;;;31.18;27.78;100363.46;105731;1259;71457;-63
2023/08/12 07:04:35;;;;;;;7.70;1.80;;;;;;;30.23;28.76;100359.15;105441;1260;67058;-62
2023/08/12 07:07:24;;;;;;;5.70;1.70;;;;;;;30.89;28.91;100358.24;105468;1258;73100;-63
2023/08/12 07:10:11;;;;;;;7.00;1.70;;;;;;;30.91;29.13;100356.73;105488;1261;59336;-63
2023/08/12 07:12:57;;;;;;;6.60;1.80;;;;;;;30.40;29.01;100358.23;105354;1261;61138;-62
2023/08/12 07:15:44;;;;;;;7.60;1.90;;;;;;;29.77;29.60;100360.32;105262;1259;71483;-64
2023/08/12 07:18:31;;;;;;;8.40;1.80;;;;;;;29.35;30.23;100354.35;105265;1261;67041;-65
2023/08/12 07:21:17;;;;;;;7.20;1.60;;;;;;;29.94;29.81;100353.06;105499;1263;73102;-67
2023/08/12 07:24:05;;;;;;;8.10;2.00;;;;;;;30.77;28.95;100355.83;105355;1264;59326;-64
2023/08/12 07:26:52;;;;;;;7.00;1.80;;;;;;;30.91;28.87;100354.20;105453;1263;60324;-62
2023/08/12 07:29:38;;;;;;;7.10;1.90;;;;;;;31.62;28.75;100353.30;105548;1261;71704;-61
2023/08/12 07:32:25;;;;;;;7.00;1.60;;;;;;;32.06;27.34;100353.70;105345;1264;69522;-64
2023/08/12 07:35:12;;;;;;;8.70;1.80;;;;;;;31.46;28.12;100351.51;105363;1263;73090;-63
2023/08/12 07:37:58;;;;;;;7.60;1.60;;;;;;;30.94;28.95;100348.05;105233;1264;59386;-62
2023/08/12 07:40:45;;;;;;;6.10;1.70;;;;;;;30.66;29.37;100352.32;105427;1263;60585;-66
2023/08/12 07:43:31;;;;;;;8.60;1.70;;;;;;;30.06;29.32;100352.52;105088;1260;73786;-65
2023/08/12 07:46:18;;;;;;;8.30;1.90;;;;;;;29.61;30.03;100351.30;105280;1263;68430;-64
2023/08/12 07:49:05;;;;;;;6.70;1.90;;;;;;;29.21;30.55;100359.96;105456;1261;73398;-62
2023/08/12 07:51:52;;;;;;;7.00;1.90;;;;;;;28.88;31.24;100358.64;105183;1264;59341;-62
2023/08/12 07:54:38;;;;;;;6.20;2.00;;;;;;;28.51;31.76;100358.80;105478;1263;60779;-63
2023/08/12 07:57:25;;;;;;;9.00;2.00;;;;;;;27.96;32.25;100354.18;105650;1261;73788;-64
2023/08/12 08:00:12;;;;;;;7.40;1.80;;;;;;;27.59;33.16;100351.36;105414;1260;68460;-65
2023/08/12 08:02:59;;;;;;;6.80;1.90;;;;;;;27.41;33.69;100348.14;104979;1259;73017;-63
2023/08/12 08:05:46;;;;;;;7.60;1.90;;;;;;;27.15;34.39;100351.16;105452;1262;59280;-62
2023/08/12 08:08:33;;;;;;;6.80;1.70;;;;;;;26.93;34.93;100351.48;105604;1260;60596;-62
2023/08/12 08:11:20;;;;;;;6.70;1.90;;;;;;;26.59;34.97;100349.73;105007;1263;73726;-62
2023/08/12 08:14:07;;;;;;;6.40;2.10;;;;;;;26.57;35.48;100345.87;105667;1262;68386;-63
2023/08/12 08:16:53;;;;;;;6.40;1.80;;;;;;;26.66;35.64;100349.86;105501;1263;71562;-65
2023/08/12 08:19:41;;;;;;;6.20;1.80;;;;;;;26.74;35.68;100348.41;105168;1257;59356;-64
2023/08/12 08:22:28;;;;;;;7.70;1.90;;;;;;;26.96;35.35;100350.33;105357;1263;59770;-62
2023/08/12 08:25:18;;;;;;;7.70;2.00;;;;;;;27.26;35.10;100342.41;105659;1258;73287;-62
2023/08/12 08:28:05;;;;;;;8.60;2.40;;;;;;;27.59;34.59;100341.26;105487;1260;67423;-66
2023/08/12 08:30:52;;;;;;;8.90;2.10;;;;;;;27.96;33.94;100335.54;105089;1263;72103;-64
2023/08/12 08:33:39;;;;;;;10.10;2.40;;;;;;;28.50;33.32;100338.98;105310;1261;59343;-61
2023/08/12 08:36:27;;;;;;;7.70;2.10;;;;;;;28.90;32.27;100345.05;105150;1257;61776;-62
2023/08/12 08:39:14;;;;;;;7.40;1.90;;;;;;;29.10;31.11;100340.36;105350;1257;72584;-61
2023/08/12 08:42:04;;;;;;;8.60;2.00;;;;;;;29.03;31.39;100337.30;105389;1267;67261;-62
2023/08/12 08:44:53;;;;;;;6.10;1.80;;;;;;;29.02;31.63;100339.42;105560;1257;73219;-63
2023/08/12 08:47:42;;;;;;;6.20;1.80;;;;;;;29.37;31.81;100334.81;105507;1264;59242;-64
2023/08/12 08:50:33;;;;;;;8.50;2.10;;;;;;;29.48;31.28;100331.64;105241;1260;60928;-63
2023/08/12 08:53:20;;;;;;;7.60;1.80;;;;;;;29.60;31.16;100324.85;105309;1257;72764;-63
2023/08/12 08:56:11;;;;;;;9.40;2.00;;;;;;;29.55;31.15;100322.58;106231;1257;69403;-66
2023/08/12 08:59:01;;;;;;;6.10;1.80;;;;;;;29.77;30.96;100328.46;105436;1260;72948;-62
2023/08/12 09:01:51;;;;;;;6.40;2.00;;;;;;;30.48;30.22;100330.50;105537;1263;59321;-61
2023/08/12 09:04:38;;;;;;;8.30;2.10;;;;;;;30.91;29.16;100331.58;105812;1257;60697;-63
2023/08/12 09:07:26;;;;;;;9.00;2.00;;;;;;;31.11;28.69;100323.80;105335;1258;72672;-62
2023/08/12 09:10:13;;;;;;;7.10;1.90;;;;;;;31.39;28.56;100318.26;105381;1263;67365;-64
2023/08/12 09:13:02;;;;;;;6.40;1.70;;;;;;;31.71;28.27;100316.75;105517;1262;74106;-65
2023/08/12 09:15:49;;;;;;;7.80;2.00;;;;;;;32.21;27.71;100308.16;105462;1262;59349;-64
2023/08/12 09:18:38;;;;;;;7.10;1.80;;;;;;;32.83;26.66;100317.27;105636;1257;60327;-63
2023/08/12 09:21:24;;;;;;;6.50;1.80;;;;;;;33.31;26.13;100318.82;105685;1258;72578;-62
2023/08/12 09:24:12;;;;;;;6.80;1.70;;;;;;;33.41;25.70;100315.45;105842;1262;69412;-62
2023/08/12 09:26:59;;;;;;;5.80;1.50;;;;;;;33.37;25.86;100318.04;105143;1258;72270;-62
2023/08/12 09:29:46;;;;;;;6.80;1.80;;;;;;;33.55;25.53;100314.53;105533;1258;59324;-66
2023/08/12 09:32:34;;;;;;;7.10;1.60;;;;;;;33.43;25.49;100307.79;105439;1257;61882;-63
2023/08/12 09:35:21;;;;;;;9.00;1.70;;;;;;;33.78;25.58;100304.45;105557;1258;73646;-62
2023/08/12 09:38:13;;;;;;;9.80;1.80;;;;;;;34.06;24.88;100307.62;105403;1258;69448;-64
2023/08/12 09:41:00;;;;;;;6.80;1.90;;;;;;;34.06;24.92;100303.38;105346;1260;71831;-64
2023/08/12 09:43:47;;;;;;;7.70;1.80;;;;;;;34.10;25.17;100299.75;105364;1261;59180;-63
2023/08/12 09:46:34;;;;;;;7.70;1.70;;;;;;;34.30;25.30;100296.61;105058;1264;59669;-62
2023/08/12 09:49:21;;;;;;;6.00;2.00;;;;;;;34.64;24.72;100295.05;105390;1260;72756;-64
2023/08/12 09:52:08;;;;;;;8.70;1.80;;;;;;;35.14;24.07;100297.52;105533;1263;68441;-64
2023/08/12 09:54:56;;;;;;;6.40;1.90;;;;;;;35.25;24.13;100298.26;105572;1263;73927;-62
2023/08/12 09:57:44;;;;;;;7.20;1.90;;;;;;;35.02;24.14;100296.34;105497;1260;59370;-65
2023/08/12 10:00:31;;;;;;;6.90;1.70;;;;;;;35.30;23.95;100291.96;105248;1264;60976;-63
2023/08/12 10:03:20;;;;;;;6.50;1.60;;;;;;;35.65;23.44;100296.43;105330;1263;71709;-66
2023/08/12 10:06:08;;;;;;;8.60;1.70;;;;;;;35.45;23.09;100296.04;105032;1264;69436;-62
2023/08/12 10:08:57;;;;;;;8.80;1.90;;;;;;;35.62;23.43;100291.79;105137;1263;73309;-62
2023/08/12 10:11:45;;;;;;;6.60;1.50;;;;;;;35.92;23.19;100286.61;105175;1261;59268;-61
2023/08/12 10:14:33;;;;;;;5.90;1.70;;;;;;;35.87;22.85;100280.48;105571;1259;61288;-65
2023/08/12 10:17:21;;;;;;;8.10;1.60;;;;;;;35.96;22.83;100284.66;105634;1260;71647;-65
2023/08/12 10:20:30;;;;;;;7.80;2.10;;;;;;;35.38;23.48;100289.30;105372;1260;69360;-62
2023/08/12 10:23:18;;;;;;;6.00;1.90;;;;;;;35.53;23.60;100280.52;105305;1259;73932;-61
2023/08/12 10:26:07;;;;;;;7.40;1.90;;;;;;;35.92;23.45;100280.58;105239;1264;59338;-63
2023/08/12 10:28:54;;;;;;;8.40;1.70;;;;;;;35.89;23.13;100272.90;105511;1260;62178;-61
2023/08/12 10:31:44;;;;;;;7.20;1.90;;;;;;;36.00;23.10;100273.79;104894;1259;72606;-62
2023/08/12 10:34:32;;;;;;;8.70;1.90;;;;;;;35.83;23.08;100274.50;105545;1259;68649;-62
2023/08/12 10:37:19;;;;;;;6.70;1.80;;;;;;;35.24;23.77;100270.83;105367;1259;72560;-62
2023/08/12 10:40:20;;;;;;;7.30;1.60;;;;;;;34.98;24.49;100269.64;105501;1263;59367;-64
2023/08/12 10:43:06;;;;;;;7.00;1.90;;;;;;;34.87;24.42;100261.58;105626;1259;60723;-61
2023/08/12 10:45:53;;;;;;;7.60;2.10;;;;;;;34.80;24.94;100255.33;105658;1260;72621;-62
2023/08/12 10:48:56;;;;;;;9.10;2.00;;;;;;;34.83;24.42;100259.75;105547;1258;67775;-64
2023/08/12 10:51:50;;;;;;;7.00;1.90;;;;;;;34.63;24.43;100255.36;105459;1259;74304;-65
2023/08/12 10:54:38;;;;;;;6.80;1.90;;;;;;;34.40;24.93;100250.04;104982;1259;59271;-62
2023/08/12 10:57:38;;;;;;;7.30;1.90;;;;;;;34.56;25.11;100241.77;104989;1263;60890;-63
2023/08/12 11:00:27;;;;;;;6.90;2.30;;;;;;;34.78;25.11;100241.45;105103;1262;73766;-62
2023/08/12 11:03:14;;;;;;;8.10;2.30;;;;;;;34.77;24.73;100243.70;105701;1258;68288;-63
2023/08/12 11:06:03;;;;;;;8.20;2.10;;;;;;;34.43;25.22;100237.10;105370;1259;73508;-63
2023/08/12 11:08:53;;;;;;;7.20;2.10;;;;;;;34.65;25.32;100237.67;105404;1261;59356;-65
2023/08/12 11:11:40;;;;;;;9.00;2.30;;;;;;;35.03;25.05;100238.19;105041;1264;60266;-64
2023/08/12 11:14:29;;;;;;;11.00;2.50;;;;;;;35.57;24.29;100233.48;105017;1265;72415;-62
2023/08/12 11:17:16;;;;;;;6.50;1.90;;;;;;;35.93;23.90;100229.64;105172;1263;69196;-63
2023/08/12 11:20:13;;;;;;;6.70;1.90;;;;;;;36.11;23.19;100226.65;105204;1260;73178;-65
2023/08/12 11:23:01;;;;;;;8.90;1.90;;;;;;;35.98;23.41;100228.61;105315;1264;59187;-65
2023/08/12 11:25:49;;;;;;;8.50;2.20;;;;;;;35.83;23.78;100228.27;105281;1262;60109;-64
2023/08/12 11:28:37;;;;;;;6.50;2.00;;;;;;;35.64;24.41;100223.55;105517;1258;72237;-63
2023/08/12 11:31:24;;;;;;;6.40;1.90;;;;;;;35.55;24.67;100217.83;105254;1258;68112;-62
2023/08/12 11:34:11;;;;;;;8.30;2.10;;;;;;;35.45;24.82;100216.15;105265;1264;73608;-64
2023/08/12 11:36:59;;;;;;;7.40;1.80;;;;;;;35.40;25.07;100213.90;105391;1261;59334;-63
2023/08/12 11:39:45;;;;;;;8.60;2.10;;;;;;;34.95;24.81;100220.05;105554;1261;61114;-63
2023/08/12 11:42:32;;;;;;;6.30;2.10;;;;;;;34.53;25.53;100210.77;105422;1259;73629;-62
2023/08/12 11:45:22;;;;;;;9.10;2.20;;;;;;;33.77;26.11;100203.20;105500;1261;69399;-62
2023/08/12 11:48:10;;;;;;;7.10;2.00;;;;;;;33.44;26.93;100196.98;105469;1259;73038;-60
2023/08/12 11:50:57;;;;;;;7.80;2.20;;;;;;;32.97;27.34;100195.14;105099;1259;59402;-62
2023/08/12 11:53:44;;;;;;;7.90;2.10;;;;;;;32.37;28.00;100196.34;105392;1261;59732;-63
2023/08/12 11:56:31;;;;;;;7.90;2.10;;;;;;;32.07;28.76;100183.48;105621;1259;73539;-63
2023/08/12 11:59:18;;;;;;;8.30;2.30;;;;;;;31.68;29.34;100181.01;105956;1263;67003;-63
2023/08/12 12:02:05;;;;;;;7.00;2.30;;;;;;;30.58;30.90;100182.03;105396;1264;74067;-63
2023/08/12 12:04:52;;;;;;;7.40;2.20;;;;;;;30.05;32.32;100186.09;105367;1259;59764;-64
2023/08/12 12:07:40;;;;;;;9.70;3.00;;;;;;;29.79;33.21;100184.52;105483;1261;61878;-64
2023/08/12 12:10:32;;;;;;;7.00;2.30;;;;;;;29.52;33.28;100184.02;105600;1260;72552;-65
2023/08/12 12:13:25;;;;;;;8.10;2.40;;;;;;;29.15;33.67;100175.52;105651;1263;69370;-62
2023/08/12 12:16:12;;;;;;;8.60;2.50;;;;;;;28.64;34.53;100171.16;105131;1264;72927;-62
2023/08/12 12:18:58;;;;;;;7.70;2.50;;;;;;;28.16;35.46;100172.17;105219;1257;59590;-67
2023/08/12 12:21:50;;;;;;;6.70;2.10;;;;;;;27.90;35.72;100174.52;105415;1261;59686;-63
2023/08/12 12:24:47;;;;;;;7.20;2.20;;;;;;;27.67;35.72;100172.68;105789;1259;72592;-64
2023/08/12 12:27:34;;;;;;;8.40;2.70;;;;;;;27.40;36.72;100165.72;105281;1258;67151;-63
2023/08/12 12:30:21;;;;;;;8.50;2.60;;;;;;;27.25;36.82;100169.19;105649;1259;74213;-65
2023/08/12 12:33:08;;;;;;;7.80;2.90;;;;;;;27.12;37.32;100166.98;105850;1262;59457;-64
2023/08/12 12:35:55;;;;;;;9.60;3.30;;;;;;;26.99;37.80;100168.42;105105;1264;60725;-63
2023/08/12 12:38:46;;;;;;;8.00;2.70;;;;;;;26.99;38.01;100162.73;105483;1258;71674;-60
2023/08/12 12:41:33;;;;;;;7.20;2.60;;;;;;;27.12;38.15;100156.68;105261;1262;69189;-61
2023/08/12 12:44:20;;;;;;;7.30;2.40;;;;;;;27.13;37.62;100149.82;105718;1259;74130;-61
2023/08/12 12:47:07;;;;;;;7.20;2.40;;;;;;;27.07;37.98;100145.27;105379;1258;59259;-64
2023/08/12 12:49:57;;;;;;;7.70;2.50;;;;;;;27.04;38.07;100154.92;105540;1260;60820;-65
2023/08/12 12:52:44;;;;;;;9.90;3.00;;;;;;;26.98;38.17;100150.84;105334;1259;73576;-62